createdAt,value
2022-12-29T00:00:10.896Z,4.75
2022-12-29T00:02:37.359Z,4.45
2022-12-29T00:05:07.915Z,5.72
2022-12-29T00:07:34.340Z,3.30
2022-12-29T00:10:00.893Z,4.03
2022-12-29T00:12:47.247Z,2.15
2022-12-29T00:15:32.246Z,7.40
2022-12-29T00:17:58.639Z,1.33
2022-12-29T00:20:43.526Z,1.17
2022-12-29T00:23:29.033Z,1.98
2022-12-29T00:26:14.567Z,2.88
2022-12-29T00:28:59.749Z,3.25
2022-12-29T00:31:44.875Z,3.38
2022-12-29T00:34:31.155Z,6.72
2022-12-29T00:36:58.088Z,3.10
2022-12-29T00:39:45.768Z,4.20
2022-12-29T00:42:41.383Z,2.33
2022-12-29T00:45:08.090Z,4.65
2022-12-29T00:47:34.497Z,1.98
2022-12-29T00:50:03.390Z,2.42
2022-12-29T00:52:34.368Z,2.63
2022-12-29T00:55:00.788Z,3.78
2022-12-29T00:57:33.236Z,1.35
2022-12-29T01:00:00.959Z,0.98
2022-12-29T01:02:30.235Z,2.95
2022-12-29T01:04:56.799Z,1.58
2022-12-29T01:07:23.374Z,5.35
2022-12-29T01:10:08.490Z,2.45
2022-12-29T01:12:45.674Z,0.88
2022-12-29T01:15:15.342Z,8.25
2022-12-29T01:17:41.983Z,2.38
2022-12-29T01:20:09.013Z,6.13
2022-12-29T01:22:35.491Z,2.58
2022-12-29T01:25:04.867Z,1.95
2022-12-29T01:27:33.572Z,1.65
2022-12-29T01:30:00.035Z,5.22
2022-12-29T01:32:26.531Z,6.78
2022-12-29T01:34:52.880Z,1.08
2022-12-29T01:37:19.282Z,2.38
2022-12-29T01:39:48.135Z,5.32
2022-12-29T01:42:23.382Z,6.22
2022-12-29T01:44:53.385Z,6.03
2022-12-29T01:47:50.179Z,6.22
2022-12-29T01:50:16.977Z,3.53
2022-12-29T01:52:55.401Z,2.03
2022-12-29T01:55:22.512Z,1.65
2022-12-29T01:57:54.065Z,1.10
2022-12-29T02:00:23.278Z,1.75
2022-12-29T02:02:53.177Z,3.22
2022-12-29T02:05:22.411Z,6.22
2022-12-29T02:07:51.017Z,2.00
2022-12-29T02:10:22.889Z,2.65
2022-12-29T02:12:49.411Z,0.73
2022-12-29T02:15:16.523Z,3.65
2022-12-29T02:18:22.954Z,1.73
2022-12-29T02:21:22.825Z,2.13
2022-12-29T02:24:14.008Z,0.93
2022-12-29T02:27:17.888Z,2.20
2022-12-29T02:30:03.000Z,5.00
2022-12-29T02:32:56.964Z,2.88
2022-12-29T02:35:53.405Z,3.13
2022-12-29T02:39:05.410Z,1.33
2022-12-29T02:41:58.422Z,7.00
2022-12-29T02:44:36.267Z,3.47
2022-12-29T02:47:15.263Z,8.00
2022-12-29T02:49:55.034Z,7.18
2022-12-29T02:52:28.703Z,2.85
2022-12-29T02:55:03.865Z,2.40
2022-12-29T02:57:42.142Z,0.80
2022-12-29T03:00:13.125Z,0.98
2022-12-29T03:03:17.535Z,1.15
2022-12-29T03:06:04.026Z,4.07
2022-12-29T03:08:30.355Z,0.70
2022-12-29T03:11:32.124Z,1.85
2022-12-29T03:14:53.118Z,1.88
2022-12-29T03:17:38.846Z,1.52
2022-12-29T03:20:10.439Z,0.77
2022-12-29T03:22:42.807Z,2.20
2022-12-29T03:25:40.092Z,1.10
2022-12-29T03:28:37.600Z,2.15
2022-12-29T03:31:05.671Z,1.38
2022-12-29T03:33:33.663Z,1.00
2022-12-29T03:36:08.017Z,1.65
2022-12-29T03:38:58.962Z,1.20
2022-12-29T03:41:30.398Z,1.88
2022-12-29T03:43:57.166Z,2.50
2022-12-29T03:46:23.585Z,0.90
2022-12-29T03:48:50.476Z,2.15
2022-12-29T03:51:16.903Z,2.83
2022-12-29T03:53:47.857Z,1.05
2022-12-29T03:56:16.570Z,2.15
2022-12-29T03:58:44.683Z,2.45
2022-12-29T04:01:11.264Z,3.80
2022-12-29T04:03:38.178Z,1.75
2022-12-29T04:06:05.190Z,0.95
2022-12-29T04:08:33.968Z,3.15
2022-12-29T04:11:00.364Z,3.20
2022-12-29T04:13:26.804Z,1.02
2022-12-29T04:15:55.548Z,2.80
2022-12-29T04:18:22.993Z,1.45
2022-12-29T04:21:01.161Z,1.15
2022-12-29T04:23:28.662Z,1.95
2022-12-29T04:25:55.207Z,1.30
2022-12-29T04:28:21.728Z,0.60
2022-12-29T04:30:48.788Z,2.42
2022-12-29T04:33:15.271Z,5.93
2022-12-29T04:35:43.490Z,2.13
2022-12-29T04:38:13.926Z,8.07
2022-12-29T04:40:41.686Z,2.22
2022-12-29T04:43:08.965Z,0.68
2022-12-29T04:45:35.372Z,3.83
2022-12-29T04:48:01.710Z,0.93
2022-12-29T04:50:30.413Z,1.75
2022-12-29T04:52:56.911Z,0.65
2022-12-29T04:55:25.911Z,1.15
2022-12-29T04:57:52.335Z,1.35
2022-12-29T05:00:19.110Z,2.55
2022-12-29T05:02:46.143Z,0.93
2022-12-29T05:05:12.703Z,4.40
2022-12-29T05:07:40.516Z,0.65
2022-12-29T05:10:07.694Z,0.65
2022-12-29T05:12:36.323Z,0.43
2022-12-29T05:15:05.922Z,0.98
2022-12-29T05:17:32.313Z,4.50
2022-12-29T05:19:58.835Z,2.85
2022-12-29T05:22:25.804Z,1.77
2022-12-29T05:24:52.909Z,2.13
2022-12-29T05:27:19.400Z,1.95
2022-12-29T05:29:45.921Z,0.38
2022-12-29T05:32:12.371Z,3.65
2022-12-29T05:34:38.723Z,3.53
2022-12-29T05:37:05.199Z,1.20
2022-12-29T05:39:31.570Z,2.03
2022-12-29T05:41:57.962Z,1.15
2022-12-29T05:44:25.060Z,0.80
2022-12-29T05:46:51.564Z,0.60
2022-12-29T05:49:18.274Z,1.73
2022-12-29T05:51:45.361Z,1.10
2022-12-29T05:54:16.834Z,1.13
2022-12-29T05:56:43.262Z,2.22
2022-12-29T05:59:12.010Z,0.60
2022-12-29T06:01:38.454Z,0.88
2022-12-29T06:04:07.455Z,0.63
2022-12-29T06:06:33.924Z,6.47
2022-12-29T06:09:03.008Z,0.88
2022-12-29T06:11:29.469Z,2.90
2022-12-29T06:13:57.060Z,1.05
2022-12-29T06:16:23.470Z,1.77
2022-12-29T06:18:49.865Z,4.82
2022-12-29T06:21:16.319Z,1.30
2022-12-29T06:23:46.078Z,1.13
2022-12-29T06:26:12.465Z,2.38
2022-12-29T06:28:39.543Z,6.55
2022-12-29T06:31:05.914Z,1.90
2022-12-29T06:33:34.455Z,2.13
2022-12-29T06:36:03.227Z,6.18
2022-12-29T06:38:29.589Z,5.10
2022-12-29T06:40:55.933Z,1.83
2022-12-29T06:43:22.468Z,2.90
2022-12-29T06:45:48.953Z,1.15
2022-12-29T06:48:17.910Z,3.22
2022-12-29T06:50:44.389Z,3.92
2022-12-29T06:53:10.801Z,4.13
2022-12-29T06:55:37.945Z,2.30
2022-12-29T06:58:04.361Z,1.42
2022-12-29T07:00:30.815Z,2.22
2022-12-29T07:03:00.739Z,0.70
2022-12-29T07:05:33.902Z,1.75
2022-12-29T07:08:00.986Z,11.02
2022-12-29T07:10:27.532Z,6.38
2022-12-29T07:12:54.057Z,1.30
2022-12-29T07:15:20.452Z,3.63
2022-12-29T07:17:46.876Z,6.20
2022-12-29T07:20:13.443Z,1.92
2022-12-29T07:22:39.947Z,0.68
2022-12-29T07:25:06.554Z,2.90
2022-12-29T07:27:33.576Z,1.35
2022-12-29T07:30:00.093Z,1.88
2022-12-29T07:32:26.551Z,1.65
2022-12-29T07:34:56.970Z,0.88
2022-12-29T07:37:23.311Z,1.63
2022-12-29T07:39:49.723Z,4.18
2022-12-29T07:42:17.335Z,1.73
2022-12-29T07:44:44.903Z,5.10
2022-12-29T07:47:11.440Z,1.58
2022-12-29T07:49:37.886Z,0.90
2022-12-29T07:52:04.554Z,1.80
2022-12-29T07:54:30.969Z,5.07
2022-12-29T07:56:58.505Z,2.55
2022-12-29T07:59:24.949Z,2.50
2022-12-29T08:01:52.304Z,2.65
2022-12-29T08:04:20.214Z,1.52
2022-12-29T08:06:46.668Z,1.95
2022-12-29T08:09:19.595Z,2.78
2022-12-29T08:11:48.660Z,1.95
2022-12-29T08:14:15.056Z,3.05
2022-12-29T08:16:41.527Z,3.45
2022-12-29T08:19:08.396Z,2.60
2022-12-29T08:21:34.883Z,2.58
2022-12-29T08:24:01.506Z,2.05
2022-12-29T08:26:28.910Z,2.08
2022-12-29T08:28:58.093Z,2.42
2022-12-29T08:31:25.107Z,4.00
2022-12-29T08:33:54.144Z,5.93
2022-12-29T08:36:20.734Z,4.82
2022-12-29T08:38:47.085Z,2.38
2022-12-29T08:41:13.938Z,5.88
2022-12-29T08:43:40.326Z,3.10
2022-12-29T08:46:06.788Z,9.10
2022-12-29T08:48:33.459Z,1.13
2022-12-29T08:50:59.823Z,3.33
2022-12-29T08:53:28.878Z,4.88
2022-12-29T08:56:04.154Z,5.68
2022-12-29T08:58:32.392Z,6.20
2022-12-29T09:00:59.566Z,6.55
2022-12-29T09:03:55.153Z,3.22
2022-12-29T09:06:13.391Z,2.00
2022-12-29T09:08:39.808Z,2.92
2022-12-29T09:11:08.701Z,2.25
2022-12-29T09:13:35.973Z,2.85
2022-12-29T09:16:07.871Z,4.07
2022-12-29T09:18:34.773Z,3.85
2022-12-29T09:21:03.284Z,2.38
2022-12-29T09:23:30.336Z,3.20
2022-12-29T09:25:57.237Z,3.22
2022-12-29T09:28:25.796Z,2.03
2022-12-29T09:30:52.728Z,2.35
2022-12-29T09:33:19.433Z,0.95
2022-12-29T09:35:53.968Z,7.45
2022-12-29T09:38:21.261Z,1.58
2022-12-29T09:40:52.956Z,1.40
2022-12-29T09:43:44.527Z,4.03
2022-12-29T09:46:33.045Z,2.53
2022-12-29T09:49:19.298Z,1.77
2022-12-29T09:51:51.125Z,1.67
2022-12-29T09:54:27.724Z,5.13
2022-12-29T09:56:54.497Z,1.13
2022-12-29T10:00:01.347Z,1.30
2022-12-29T10:03:07.057Z,3.70
2022-12-29T10:05:49.918Z,2.67
2022-12-29T10:08:46.087Z,5.95
2022-12-29T10:11:34.778Z,5.10
2022-12-29T10:14:33.725Z,1.55
2022-12-29T10:17:21.837Z,8.32
2022-12-29T10:20:14.753Z,2.17
2022-12-29T10:22:53.008Z,2.40
2022-12-29T10:25:23.682Z,1.70
2022-12-29T10:27:57.455Z,4.05
2022-12-29T10:30:25.246Z,2.83
2022-12-29T10:32:58.298Z,4.65
2022-12-29T10:35:34.424Z,2.55
2022-12-29T10:38:03.761Z,2.40
2022-12-29T10:40:37.400Z,4.82
2022-12-29T10:43:21.055Z,2.45
2022-12-29T10:45:48.787Z,6.30
2022-12-29T10:48:30.064Z,3.85
2022-12-29T10:51:02.181Z,2.90
2022-12-29T10:53:39.927Z,9.95
2022-12-29T10:56:16.156Z,1.50
2022-12-29T10:58:49.573Z,5.68
2022-12-29T11:01:18.547Z,1.45
2022-12-29T11:04:03.473Z,7.35
2022-12-29T11:06:33.122Z,3.60
2022-12-29T11:09:11.552Z,3.15
2022-12-29T11:11:38.064Z,4.13
2022-12-29T11:14:15.058Z,5.38
2022-12-29T11:16:42.819Z,1.75
2022-12-29T11:19:23.919Z,3.15
2022-12-29T11:21:51.115Z,2.03
2022-12-29T11:24:25.595Z,1.95
2022-12-29T11:26:58.501Z,3.30
2022-12-29T11:29:26.519Z,2.55
2022-12-29T11:31:59.106Z,2.65
2022-12-29T11:34:36.587Z,2.75
2022-12-29T11:37:11.125Z,4.65
2022-12-29T11:39:53.848Z,2.38
2022-12-29T11:42:27.337Z,3.78
2022-12-29T11:44:53.792Z,3.45
2022-12-29T11:47:25.983Z,2.17
2022-12-29T11:49:58.110Z,2.13
2022-12-29T11:54:55.815Z,4.00
2022-12-29T11:57:24.623Z,0.50
2022-12-29T11:59:58.870Z,2.35
2022-12-29T12:02:44.571Z,2.20
2022-12-29T12:05:34.690Z,2.15
2022-12-29T12:08:09.416Z,1.58
2022-12-29T12:10:49.922Z,2.20
2022-12-29T12:13:35.767Z,1.73
2022-12-29T12:16:18.270Z,1.30
2022-12-29T12:19:07.237Z,0.55
2022-12-29T12:21:45.833Z,4.38
2022-12-29T12:24:56.657Z,1.70
2022-12-29T12:27:44.920Z,1.40
2022-12-29T12:30:17.815Z,0.82
2022-12-29T12:33:08.067Z,2.78
2022-12-29T12:36:22.964Z,2.05
2022-12-29T12:39:12.891Z,1.77
2022-12-29T12:42:04.887Z,0.90
2022-12-29T12:44:57.920Z,3.53
2022-12-29T12:47:37.000Z,3.00
2022-12-29T12:50:26.260Z,1.67
2022-12-29T12:53:16.742Z,3.40
2022-12-29T12:55:56.122Z,3.03
2022-12-29T12:58:52.266Z,2.80
2022-12-29T13:01:40.217Z,9.00
2022-12-29T13:04:35.205Z,7.72
2022-12-29T13:07:46.761Z,6.63
2022-12-29T13:10:28.215Z,6.10
2022-12-29T13:13:00.796Z,7.37
2022-12-29T13:15:41.496Z,6.22
2022-12-29T13:18:30.863Z,4.93
2022-12-29T13:21:04.450Z,3.80
2022-12-29T13:23:46.040Z,7.22
2022-12-29T13:26:12.414Z,6.32
2022-12-29T13:29:00.691Z,6.13
2022-12-29T13:31:55.579Z,4.97
2022-12-29T13:34:35.115Z,4.13
2022-12-29T13:37:08.633Z,3.67
2022-12-29T13:39:40.079Z,1.35
2022-12-29T13:42:07.514Z,3.38
2022-12-29T13:44:38.392Z,3.63
2022-12-29T13:47:22.920Z,2.72
2022-12-29T13:49:55.204Z,3.08
2022-12-29T13:52:42.456Z,4.10
2022-12-29T13:55:27.765Z,3.22
2022-12-29T13:58:15.450Z,3.80
2022-12-29T14:01:11.417Z,4.28
2022-12-29T14:03:49.414Z,6.70
2022-12-29T14:06:20.466Z,6.40
2022-12-29T14:08:48.630Z,7.43
2022-12-29T14:11:18.573Z,4.28
2022-12-29T14:13:47.952Z,3.33
2022-12-29T14:16:30.739Z,3.20
2022-12-29T14:19:18.698Z,9.73
2022-12-29T14:21:56.227Z,2.85
2022-12-29T14:24:37.810Z,6.38
2022-12-29T14:27:10.459Z,3.47
2022-12-29T14:29:39.559Z,8.73
2022-12-29T14:32:29.231Z,11.52
2022-12-29T14:34:59.336Z,7.38
2022-12-29T14:37:36.783Z,8.02
2022-12-29T14:40:20.675Z,12.50
2022-12-29T14:42:49.355Z,5.00
2022-12-29T14:45:15.714Z,1.83
2022-12-29T14:47:48.098Z,4.00
2022-12-29T14:50:14.472Z,1.45
2022-12-29T14:52:47.540Z,3.83
2022-12-29T14:55:16.875Z,6.05
2022-12-29T14:57:52.168Z,5.85
2022-12-29T15:00:19.999Z,6.95
2022-12-29T15:02:55.693Z,1.85
2022-12-29T15:05:33.976Z,3.63
2022-12-29T15:08:01.726Z,2.20
2022-12-29T15:10:47.767Z,6.00
2022-12-29T15:13:24.799Z,2.90
2022-12-29T15:15:51.411Z,1.95
2022-12-29T15:18:30.883Z,4.50
2022-12-29T15:21:04.751Z,4.78
2022-12-29T15:23:33.520Z,0.95
2022-12-29T15:26:03.859Z,3.03
2022-12-29T15:28:41.102Z,3.20
2022-12-29T15:31:18.562Z,5.80
2022-12-29T15:33:49.222Z,6.43
2022-12-29T15:36:21.878Z,5.50
2022-12-29T15:38:49.713Z,1.67
2022-12-29T15:41:22.575Z,1.20
2022-12-29T15:44:06.797Z,2.20
2022-12-29T15:46:33.316Z,1.27
2022-12-29T15:48:59.951Z,1.48
2022-12-29T15:51:35.582Z,0.98
2022-12-29T15:54:02.430Z,2.53
2022-12-29T15:56:33.644Z,2.53
2022-12-29T15:59:03.100Z,2.15
2022-12-29T16:01:35.499Z,1.98
2022-12-29T16:04:06.923Z,5.43
2022-12-29T16:06:55.354Z,10.88
2022-12-29T16:09:35.251Z,6.53
2022-12-29T16:12:14.498Z,10.40
2022-12-29T16:14:57.590Z,12.30
2022-12-29T16:17:27.900Z,10.98
2022-12-29T16:19:55.932Z,8.18
2022-12-29T16:22:31.047Z,11.02
2022-12-29T16:25:05.032Z,16.52
2022-12-29T16:27:41.505Z,13.52
2022-12-29T16:30:33.409Z,12.63
2022-12-29T16:33:02.839Z,15.00
2022-12-29T16:35:42.970Z,10.48
2022-12-29T16:38:16.479Z,14.25
2022-12-29T16:41:03.520Z,11.68
2022-12-29T16:43:40.328Z,18.27
2022-12-29T16:46:18.151Z,13.80
2022-12-29T16:48:54.692Z,12.32
2022-12-29T16:51:30.911Z,8.05
2022-12-29T16:53:58.021Z,9.27
2022-12-29T16:56:30.238Z,12.90
2022-12-29T16:59:23.101Z,12.15
2022-12-29T17:01:55.226Z,8.50
2022-12-29T17:04:21.641Z,11.63
2022-12-29T17:06:48.601Z,5.93
2022-12-29T17:09:27.828Z,8.52
2022-12-29T17:12:10.734Z,7.32
2022-12-29T17:14:42.781Z,9.98
2022-12-29T17:17:39.004Z,7.20
2022-12-29T17:20:26.815Z,9.13
2022-12-29T17:22:54.958Z,4.88
2022-12-29T17:25:37.351Z,6.82
2022-12-29T17:30:41.038Z,11.48
2022-12-29T17:33:13.574Z,10.85
2022-12-29T17:35:42.400Z,4.05
2022-12-29T17:38:46.617Z,6.63
2022-12-29T17:41:19.386Z,4.30
2022-12-29T17:43:48.431Z,8.63
2022-12-29T17:46:14.982Z,10.77
2022-12-29T17:48:41.411Z,7.43
2022-12-29T17:51:11.919Z,4.43
2022-12-29T17:53:38.507Z,5.53
2022-12-29T17:56:08.073Z,4.10
2022-12-29T17:58:34.791Z,3.90
2022-12-29T18:01:03.199Z,3.90
2022-12-29T18:03:35.877Z,4.45
2022-12-29T18:06:06.462Z,8.57
2022-12-29T18:08:34.555Z,6.13
2022-12-29T18:11:04.392Z,10.55
2022-12-29T18:13:43.535Z,2.80
2022-12-29T18:16:13.133Z,3.08
2022-12-29T18:18:41.959Z,4.40
2022-12-29T18:21:22.929Z,11.52
2022-12-29T18:23:49.806Z,10.38
2022-12-29T18:26:25.696Z,7.43
2022-12-29T18:28:57.413Z,2.80
2022-12-29T18:31:26.615Z,5.22
2022-12-29T18:33:54.420Z,4.43
2022-12-29T18:36:21.379Z,11.43
2022-12-29T18:38:55.682Z,2.22
2022-12-29T18:41:30.841Z,9.10
2022-12-29T18:43:58.916Z,6.68
2022-12-29T18:46:25.545Z,5.10
2022-12-29T18:48:52.689Z,2.55
2022-12-29T18:51:23.735Z,8.38
2022-12-29T18:53:52.334Z,8.32
2022-12-29T18:56:23.132Z,7.05
2022-12-29T18:58:50.558Z,4.80
2022-12-29T19:01:22.465Z,8.35
2022-12-29T19:03:49.636Z,4.95
2022-12-29T19:06:16.480Z,7.57
2022-12-29T19:08:45.198Z,3.80
2022-12-29T19:11:17.953Z,5.00
2022-12-29T19:13:44.412Z,3.55
2022-12-29T19:16:19.384Z,6.45
2022-12-29T19:19:02.397Z,9.50
2022-12-29T19:21:34.076Z,6.88
2022-12-29T19:24:00.625Z,9.48
2022-12-29T19:26:30.705Z,8.48
2022-12-29T19:28:58.403Z,8.57
2022-12-29T19:31:27.120Z,8.15
2022-12-29T19:33:53.730Z,8.15
2022-12-29T19:36:23.374Z,8.68
2022-12-29T19:38:49.783Z,7.25
2022-12-29T19:41:16.339Z,5.10
2022-12-29T19:43:43.792Z,9.32
2022-12-29T19:46:15.272Z,8.52
2022-12-29T19:48:41.904Z,7.90
2022-12-29T19:51:15.477Z,5.78
2022-12-29T19:53:41.852Z,9.32
2022-12-29T19:56:08.976Z,14.13
2022-12-29T19:58:41.556Z,8.48
2022-12-29T20:01:13.466Z,11.10
2022-12-29T20:03:41.515Z,11.95
2022-12-29T20:06:10.345Z,8.52
2022-12-29T20:08:38.169Z,10.43
2022-12-29T20:11:11.519Z,7.55
2022-12-29T20:13:37.925Z,4.15
2022-12-29T20:16:07.886Z,6.95
2022-12-29T20:18:38.152Z,8.45
2022-12-29T20:21:07.023Z,5.55
2022-12-29T20:23:34.510Z,9.35
2022-12-29T20:26:02.169Z,8.32
2022-12-29T20:28:29.613Z,5.60
2022-12-29T20:31:03.137Z,8.38
2022-12-29T20:33:34.494Z,13.60
2022-12-29T20:36:23.884Z,14.52
2022-12-29T20:38:55.072Z,5.78
2022-12-29T20:41:22.788Z,7.43
2022-12-29T20:43:50.384Z,5.95
2022-12-29T20:46:20.787Z,4.97
2022-12-29T20:48:48.814Z,8.68
2022-12-29T20:51:17.882Z,8.63
2022-12-29T20:53:44.465Z,9.52
2022-12-29T20:56:15.969Z,7.45
2022-12-29T20:59:08.507Z,5.27
2022-12-29T21:01:29.445Z,10.20
2022-12-29T21:03:59.765Z,10.77
2022-12-29T21:06:29.345Z,12.40
2022-12-29T21:08:55.915Z,5.50
2022-12-29T21:11:22.837Z,5.13
2022-12-29T21:13:49.919Z,11.43
2022-12-29T21:16:20.976Z,5.07
2022-12-29T21:18:48.496Z,9.60
2022-12-29T21:21:23.692Z,8.98
2022-12-29T21:23:50.989Z,10.98
2022-12-29T21:26:19.927Z,5.93
2022-12-29T21:28:48.918Z,10.40
2022-12-29T21:31:30.869Z,7.40
2022-12-29T21:33:57.929Z,10.25
2022-12-29T21:36:27.455Z,11.88
2022-12-29T21:38:54.711Z,9.38
2022-12-29T21:41:21.870Z,6.40
2022-12-29T21:44:08.834Z,11.18
2022-12-29T21:46:38.255Z,11.05
2022-12-29T21:49:06.097Z,4.45
2022-12-29T21:51:51.808Z,13.35
2022-12-29T21:54:41.309Z,2.72
2022-12-29T21:57:08.705Z,8.15
2022-12-29T21:59:53.930Z,10.95
2022-12-29T22:02:47.050Z,5.82
2022-12-29T22:05:34.916Z,16.73
2022-12-29T22:08:21.535Z,15.93
2022-12-29T22:11:06.603Z,15.38
2022-12-29T22:13:38.912Z,12.75
2022-12-29T22:18:37.171Z,12.45
2022-12-29T22:21:14.936Z,6.85
2022-12-29T22:23:44.013Z,4.60
2022-12-29T22:26:13.221Z,3.85
2022-12-29T22:28:41.960Z,6.60
2022-12-29T22:31:27.992Z,15.93
2022-12-29T22:34:06.395Z,7.07
2022-12-29T22:36:33.337Z,7.07
2022-12-29T22:38:59.719Z,8.57
2022-12-29T22:41:26.188Z,13.07
2022-12-29T22:43:52.608Z,9.55
2022-12-29T22:46:21.487Z,16.95
2022-12-29T22:48:48.432Z,5.80
2022-12-29T22:51:14.860Z,2.38
2022-12-29T22:53:45.443Z,5.88
2022-12-29T22:56:13.860Z,9.02
2022-12-29T22:58:45.232Z,8.25
2022-12-29T23:01:17.648Z,12.30
2022-12-29T23:03:44.655Z,5.72
2022-12-29T23:06:16.040Z,7.80
2022-12-29T23:08:44.001Z,6.97
2022-12-29T23:11:16.249Z,9.68
2022-12-29T23:13:45.123Z,6.35
2022-12-29T23:16:11.640Z,8.80
2022-12-29T23:18:38.223Z,11.30
2022-12-29T23:21:07.491Z,13.60
2022-12-29T23:23:52.451Z,4.95
2022-12-29T23:26:22.950Z,5.43
2022-12-29T23:28:52.370Z,14.38
2022-12-29T23:31:23.419Z,6.55
2022-12-29T23:33:50.160Z,7.50
2022-12-29T23:36:17.035Z,3.88
2022-12-29T23:38:44.137Z,10.43
2022-12-29T23:41:11.813Z,5.45
2022-12-29T23:43:38.660Z,6.20
2022-12-29T23:46:10.595Z,7.00
2022-12-29T23:48:37.296Z,10.30
2022-12-29T23:51:07.429Z,10.90
2022-12-29T23:53:36.579Z,2.92
2022-12-29T23:56:04.123Z,1.45
2022-12-29T23:58:35.005Z,2.33
